sensor_id;sensor_type;location;lat;lon;timestamp;pressure;altitude;pressure_sealevel;temperature
19061;BMP280;9663;48.996;8.334;2024-03-17T00:02:11;101043.06;;;15.68
19061;BMP280;9663;48.996;8.334;2024-03-17T00:04:37;101039.78;;;15.58
19061;BMP280;9663;48.996;8.334;2024-03-17T00:07:03;101042.38;;;15.54
19061;BMP280;9663;48.996;8.334;2024-03-17T00:09:29;101045.03;;;15.46
19061;BMP280;9663;48.996;8.334;2024-03-17T00:11:55;101045.94;;;15.41
19061;BMP280;9663;48.996;8.334;2024-03-17T00:14:22;101040.91;;;15.37
19061;BMP280;9663;48.996;8.334;2024-03-17T00:16:47;101039.22;;;15.33
19061;BMP280;9663;48.996;8.334;2024-03-17T00:19:14;101035.00;;;15.32
19061;BMP280;9663;48.996;8.334;2024-03-17T00:21:43;101040.13;;;15.30
19061;BMP280;9663;48.996;8.334;2024-03-17T00:24:09;101023.97;;;15.28
19061;BMP280;9663;48.996;8.334;2024-03-17T00:26:35;101037.59;;;15.27
19061;BMP280;9663;48.996;8.334;2024-03-17T00:29:01;101041.88;;;15.27
19061;BMP280;9663;48.996;8.334;2024-03-17T00:31:28;101030.84;;;15.23
19061;BMP280;9663;48.996;8.334;2024-03-17T00:33:54;101024.84;;;15.23
19061;BMP280;9663;48.996;8.334;2024-03-17T00:36:20;101035.97;;;15.20
19061;BMP280;9663;48.996;8.334;2024-03-17T00:38:46;101018.94;;;15.19
19061;BMP280;9663;48.996;8.334;2024-03-17T00:41:11;101019.81;;;15.17
19061;BMP280;9663;48.996;8.334;2024-03-17T00:43:37;101011.28;;;15.16
19061;BMP280;9663;48.996;8.334;2024-03-17T00:46:03;101010.44;;;15.14
19061;BMP280;9663;48.996;8.334;2024-03-17T00:48:29;101001.06;;;15.13
19061;BMP280;9663;48.996;8.334;2024-03-17T00:50:56;101006.19;;;15.13
19061;BMP280;9663;48.996;8.334;2024-03-17T00:53:22;101009.59;;;15.14
19061;BMP280;9663;48.996;8.334;2024-03-17T00:55:56;100998.50;;;15.15
19061;BMP280;9663;48.996;8.334;2024-03-17T00:58:26;100993.41;;;15.16
19061;BMP280;9663;48.996;8.334;2024-03-17T01:00:52;100990.00;;;15.14
19061;BMP280;9663;48.996;8.334;2024-03-17T01:03:18;100990.00;;;15.14
19061;BMP280;9663;48.996;8.334;2024-03-17T01:05:45;100995.16;;;15.10
19061;BMP280;9663;48.996;8.334;2024-03-17T01:08:14;100996.06;;;15.06
19061;BMP280;9663;48.996;8.334;2024-03-17T01:10:43;100990.16;;;15.01
19061;BMP280;9663;48.996;8.334;2024-03-17T01:13:10;100994.47;;;14.94
19061;BMP280;9663;48.996;8.334;2024-03-17T01:15:37;100993.69;;;14.87
19061;BMP280;9663;48.996;8.334;2024-03-17T01:18:06;101003.13;;;14.80
19061;BMP280;9663;48.996;8.334;2024-03-17T01:20:34;100995.56;;;14.74
19061;BMP280;9663;48.996;8.334;2024-03-17T01:23:01;100998.13;;;14.71
19061;BMP280;9663;48.996;8.334;2024-03-17T01:25:27;100994.75;;;14.69
19061;BMP280;9663;48.996;8.334;2024-03-17T01:27:55;100987.91;;;14.70
19061;BMP280;9663;48.996;8.334;2024-03-17T01:30:22;100989.63;;;14.69
19061;BMP280;9663;48.996;8.334;2024-03-17T01:32:50;100981.97;;;14.69
19061;BMP280;9663;48.996;8.334;2024-03-17T01:35:17;100979.41;;;14.71
19061;BMP280;9663;48.996;8.334;2024-03-17T01:37:43;100976.81;;;14.72
19061;BMP280;9663;48.996;8.334;2024-03-17T01:40:10;100959.78;;;14.76
19061;BMP280;9663;48.996;8.334;2024-03-17T01:42:41;100961.47;;;14.77
19061;BMP280;9663;48.996;8.334;2024-03-17T01:45:26;100953.81;;;14.74
19061;BMP280;9663;48.996;8.334;2024-03-17T01:47:56;100962.28;;;14.79
19061;BMP280;9663;48.996;8.334;2024-03-17T01:50:35;100946.09;;;14.80
19061;BMP280;9663;48.996;8.334;2024-03-17T01:53:10;100946.94;;;14.80
19061;BMP280;9663;48.996;8.334;2024-03-17T01:55:38;100954.59;;;14.83
19061;BMP280;9663;48.996;8.334;2024-03-17T01:58:05;100947.81;;;14.81
19061;BMP280;9663;48.996;8.334;2024-03-17T02:00:37;100955.41;;;14.84
19061;BMP280;9663;48.996;8.334;2024-03-17T02:03:08;100957.97;;;14.84
19061;BMP280;9663;48.996;8.334;2024-03-17T02:05:35;100946.94;;;14.80
19061;BMP280;9663;48.996;8.334;2024-03-17T02:08:07;100945.28;;;14.78
19061;BMP280;9663;48.996;8.334;2024-03-17T02:10:34;100941.06;;;14.74
19061;BMP280;9663;48.996;8.334;2024-03-17T02:13:00;100937.69;;;14.72
19061;BMP280;9663;48.996;8.334;2024-03-17T02:15:26;100936.00;;;14.71
19061;BMP280;9663;48.996;8.334;2024-03-17T02:17:53;100933.44;;;14.71
19061;BMP280;9663;48.996;8.334;2024-03-17T02:20:19;100930.91;;;14.71
19061;BMP280;9663;48.996;8.334;2024-03-17T02:22:45;100930.91;;;14.69
19061;BMP280;9663;48.996;8.334;2024-03-17T02:25:10;100928.38;;;14.68
19061;BMP280;9663;48.996;8.334;2024-03-17T02:27:36;100925.81;;;14.66
19061;BMP280;9663;48.996;8.334;2024-03-17T02:30:03;100933.50;;;14.66
19061;BMP280;9663;48.996;8.334;2024-03-17T02:32:33;100935.22;;;14.64
19061;BMP280;9663;48.996;8.334;2024-03-17T02:34:59;100928.44;;;14.60
19061;BMP280;9663;48.996;8.334;2024-03-17T02:37:25;100925.06;;;14.58
19061;BMP280;9663;48.996;8.334;2024-03-17T02:39:51;100919.97;;;14.55
19061;BMP280;9663;48.996;8.334;2024-03-17T02:42:17;100925.97;;;14.54
19061;BMP280;9663;48.996;8.334;2024-03-17T02:44:42;100914.06;;;14.52
19061;BMP280;9663;48.996;8.334;2024-03-17T02:47:08;100920.88;;;14.50
19061;BMP280;9663;48.996;8.334;2024-03-17T02:49:35;100917.50;;;14.50
19061;BMP280;9663;48.996;8.334;2024-03-17T02:52:07;100914.94;;;14.50
19061;BMP280;9663;48.996;8.334;2024-03-17T02:54:36;100911.53;;;14.48
19061;BMP280;9663;48.996;8.334;2024-03-17T02:57:06;100909.88;;;14.47
19061;BMP280;9663;48.996;8.334;2024-03-17T02:59:34;100912.44;;;14.45
19061;BMP280;9663;48.996;8.334;2024-03-17T03:02:00;100916.69;;;14.45
19061;BMP280;9663;48.996;8.334;2024-03-17T03:04:27;100916.69;;;14.45
19061;BMP280;9663;48.996;8.334;2024-03-17T03:06:53;100914.97;;;14.45
19061;BMP280;9663;48.996;8.334;2024-03-17T03:09:18;100917.56;;;14.42
19061;BMP280;9663;48.996;8.334;2024-03-17T03:11:56;100904.81;;;14.39
19061;BMP280;9663;48.996;8.334;2024-03-17T03:14:22;100919.31;;;14.37
19061;BMP280;9663;48.996;8.334;2024-03-17T03:16:47;100923.59;;;14.32
19061;BMP280;9663;48.996;8.334;2024-03-17T03:19:16;100929.56;;;14.31
19061;BMP280;9663;48.996;8.334;2024-03-17T03:21:41;100925.34;;;14.29
19061;BMP280;9663;48.996;8.334;2024-03-17T03:24:07;100921.09;;;14.26
19061;BMP280;9663;48.996;8.334;2024-03-17T03:26:33;100922.81;;;14.26
19061;BMP280;9663;48.996;8.334;2024-03-17T03:28:59;100923.66;;;14.25
19061;BMP280;9663;48.996;8.334;2024-03-17T03:31:24;100929.66;;;14.21
19061;BMP280;9663;48.996;8.334;2024-03-17T03:33:50;100927.09;;;14.21
19061;BMP280;9663;48.996;8.334;2024-03-17T03:36:16;100927.97;;;14.20
19061;BMP280;9663;48.996;8.334;2024-03-17T03:38:44;100915.25;;;14.17
19061;BMP280;9663;48.996;8.334;2024-03-17T03:41:13;100911.84;;;14.15
19061;BMP280;9663;48.996;8.334;2024-03-17T03:43:39;100909.34;;;14.13
19061;BMP280;9663;48.996;8.334;2024-03-17T03:46:07;100906.81;;;14.10
19061;BMP280;9663;48.996;8.334;2024-03-17T03:48:33;100907.66;;;14.09
19061;BMP280;9663;48.996;8.334;2024-03-17T03:51:06;100907.66;;;14.09
19061;BMP280;9663;48.996;8.334;2024-03-17T03:53:33;100916.19;;;14.07
19061;BMP280;9663;48.996;8.334;2024-03-17T03:56:02;100912.78;;;14.04
19061;BMP280;9663;48.996;8.334;2024-03-17T03:58:38;100913.66;;;13.98
19061;BMP280;9663;48.996;8.334;2024-03-17T04:01:05;100917.09;;;13.94
19061;BMP280;9663;48.996;8.334;2024-03-17T04:03:33;100914.56;;;13.93
19061;BMP280;9663;48.996;8.334;2024-03-17T04:06:07;100919.69;;;13.90
19061;BMP280;9663;48.996;8.334;2024-03-17T04:08:34;100927.34;;;13.87
19061;BMP280;9663;48.996;8.334;2024-03-17T04:11:01;100920.59;;;13.83
19061;BMP280;9663;48.996;8.334;2024-03-17T04:13:30;100912.97;;;13.77
19061;BMP280;9663;48.996;8.334;2024-03-17T04:16:07;100913.03;;;13.71
19061;BMP280;9663;48.996;8.334;2024-03-17T04:18:33;100918.13;;;13.68
19061;BMP280;9663;48.996;8.334;2024-03-17T04:21:05;100922.41;;;13.65
19061;BMP280;9663;48.996;8.334;2024-03-17T04:23:32;100919.03;;;13.61
19061;BMP280;9663;48.996;8.334;2024-03-17T04:26:00;100917.34;;;13.59
19061;BMP280;9663;48.996;8.334;2024-03-17T04:28:27;100913.97;;;13.57
19061;BMP280;9663;48.996;8.334;2024-03-17T04:30:52;100910.59;;;13.52
19061;BMP280;9663;48.996;8.334;2024-03-17T04:33:18;100912.31;;;13.50
19061;BMP280;9663;48.996;8.334;2024-03-17T04:35:44;100905.50;;;13.49
19061;BMP280;9663;48.996;8.334;2024-03-17T04:38:10;100904.69;;;13.48
19061;BMP280;9663;48.996;8.334;2024-03-17T04:40:42;100906.34;;;13.49
19061;BMP280;9663;48.996;8.334;2024-03-17T04:43:08;100901.25;;;13.49
19061;BMP280;9663;48.996;8.334;2024-03-17T04:45:35;100903.81;;;13.48
19061;BMP280;9663;48.996;8.334;2024-03-17T04:48:00;100904.69;;;13.45
19061;BMP280;9663;48.996;8.334;2024-03-17T04:50:26;100907.25;;;13.41
19061;BMP280;9663;48.996;8.334;2024-03-17T04:53:00;100907.25;;;13.38
19061;BMP280;9663;48.996;8.334;2024-03-17T04:55:26;100919.19;;;13.33
19061;BMP280;9663;48.996;8.334;2024-03-17T04:57:52;100920.91;;;13.28
19061;BMP280;9663;48.996;8.334;2024-03-17T05:00:18;100917.53;;;13.22
19061;BMP280;9663;48.996;8.334;2024-03-17T05:02:45;100929.44;;;13.17
19061;BMP280;9663;48.996;8.334;2024-03-17T05:05:10;100925.25;;;13.07
19061;BMP280;9663;48.996;8.334;2024-03-17T05:07:37;100924.44;;;12.99
19061;BMP280;9663;48.996;8.334;2024-03-17T05:10:04;100925.28;;;12.93
19061;BMP280;9663;48.996;8.334;2024-03-17T05:12:29;100921.91;;;12.88
19061;BMP280;9663;48.996;8.334;2024-03-17T05:14:55;100919.38;;;12.85
19061;BMP280;9663;48.996;8.334;2024-03-17T05:17:21;100915.97;;;12.80
19061;BMP280;9663;48.996;8.334;2024-03-17T05:19:46;100921.06;;;12.79
19061;BMP280;9663;48.996;8.334;2024-03-17T05:22:21;100915.13;;;12.77
19061;BMP280;9663;48.996;8.334;2024-03-17T05:24:47;100919.38;;;12.77
19061;BMP280;9663;48.996;8.334;2024-03-17T05:27:17;100917.69;;;12.78
19061;BMP280;9663;48.996;8.334;2024-03-17T05:29:43;100918.53;;;12.76
19061;BMP280;9663;48.996;8.334;2024-03-17T05:32:18;100925.31;;;12.77
19061;BMP280;9663;48.996;8.334;2024-03-17T05:34:47;100913.41;;;12.79
19061;BMP280;9663;48.996;8.334;2024-03-17T05:37:12;100920.22;;;12.80
19061;BMP280;9663;48.996;8.334;2024-03-17T05:39:39;100912.63;;;12.81
19061;BMP280;9663;48.996;8.334;2024-03-17T05:42:05;100913.44;;;12.83
19061;BMP280;9663;48.996;8.334;2024-03-17T05:44:31;100907.53;;;12.84
19061;BMP280;9663;48.996;8.334;2024-03-17T05:47:14;100921.09;;;12.86
19061;BMP280;9663;48.996;8.334;2024-03-17T05:49:40;100919.38;;;12.87
19061;BMP280;9663;48.996;8.334;2024-03-17T05:52:07;100925.31;;;12.90
19061;BMP280;9663;48.996;8.334;2024-03-17T05:54:34;100924.47;;;12.96
19061;BMP280;9663;48.996;8.334;2024-03-17T05:57:00;100920.19;;;12.99
19061;BMP280;9663;48.996;8.334;2024-03-17T05:59:25;100927.84;;;13.02
19061;BMP280;9663;48.996;8.334;2024-03-17T06:01:51;100925.25;;;13.07
19061;BMP280;9663;48.996;8.334;2024-03-17T06:04:17;100915.88;;;13.12
19061;BMP280;9663;48.996;8.334;2024-03-17T06:06:42;100912.50;;;13.16
19061;BMP280;9663;48.996;8.334;2024-03-17T06:09:08;100909.91;;;13.20
19061;BMP280;9663;48.996;8.334;2024-03-17T06:11:36;100914.97;;;13.24
19061;BMP280;9663;48.996;8.334;2024-03-17T06:14:02;100912.41;;;13.29
19061;BMP280;9663;48.996;8.334;2024-03-17T06:16:30;100913.25;;;13.35
19061;BMP280;9663;48.996;8.334;2024-03-17T06:18:56;100915.78;;;13.40
19061;BMP280;9663;48.996;8.334;2024-03-17T06:21:22;100914.03;;;13.45
19061;BMP280;9663;48.996;8.334;2024-03-17T06:23:47;100908.91;;;13.49
19061;BMP280;9663;48.996;8.334;2024-03-17T06:26:14;100916.53;;;13.54
19061;BMP280;9663;48.996;8.334;2024-03-17T06:28:39;100918.16;;;13.61
19061;BMP280;9663;48.996;8.334;2024-03-17T06:31:05;100907.06;;;13.67
19061;BMP280;9663;48.996;8.334;2024-03-17T06:33:32;100907.94;;;13.71
19061;BMP280;9663;48.996;8.334;2024-03-17T06:36:02;100910.41;;;13.77
19061;BMP280;9663;48.996;8.334;2024-03-17T06:38:30;100900.19;;;13.81
19061;BMP280;9663;48.996;8.334;2024-03-17T06:40:56;100906.09;;;13.91
19061;BMP280;9663;48.996;8.334;2024-03-17T06:43:22;100919.63;;;13.97
19061;BMP280;9663;48.996;8.334;2024-03-17T06:45:59;100918.75;;;14.06
19061;BMP280;9663;48.996;8.334;2024-03-17T06:48:26;100916.13;;;14.13
19061;BMP280;9663;48.996;8.334;2024-03-17T06:50:53;100910.06;;;14.23
19061;BMP280;9663;48.996;8.334;2024-03-17T06:53:24;100912.56;;;14.32
19061;BMP280;9663;48.996;8.334;2024-03-17T06:55:59;100906.53;;;14.40
19061;BMP280;9663;48.996;8.334;2024-03-17T06:58:27;100907.31;;;14.47
19061;BMP280;9663;48.996;8.334;2024-03-17T07:01:00;100902.94;;;14.56
19061;BMP280;9663;48.996;8.334;2024-03-17T07:03:31;100910.53;;;14.65
19061;BMP280;9663;48.996;8.334;2024-03-17T07:05:59;100913.78;;;14.77
19061;BMP280;9663;48.996;8.334;2024-03-17T07:08:29;100910.22;;;14.92
19061;BMP280;9663;48.996;8.334;2024-03-17T07:11:05;100899.88;;;15.02
19061;BMP280;9663;48.996;8.334;2024-03-17T07:13:35;100901.41;;;15.15
19061;BMP280;9663;48.996;8.334;2024-03-17T07:16:03;100902.97;;;15.28
19061;BMP280;9663;48.996;8.334;2024-03-17T07:18:31;100898.53;;;15.43
19061;BMP280;9663;48.996;8.334;2024-03-17T07:20:59;100905.97;;;15.58
19061;BMP280;9663;48.996;8.334;2024-03-17T07:23:25;100904.00;;;15.75
19061;BMP280;9663;48.996;8.334;2024-03-17T07:25:59;100906.28;;;15.92
19061;BMP280;9663;48.996;8.334;2024-03-17T07:28:26;100904.34;;;16.06
19061;BMP280;9663;48.996;8.334;2024-03-17T07:30:57;100905.84;;;16.21
19061;BMP280;9663;48.996;8.334;2024-03-17T07:33:24;100897.91;;;16.34
19061;BMP280;9663;48.996;8.334;2024-03-17T07:35:57;100898.56;;;16.46
19061;BMP280;9663;48.996;8.334;2024-03-17T07:38:27;100897.56;;;16.55
19061;BMP280;9663;48.996;8.334;2024-03-17T07:41:04;100894.06;;;16.57
19061;BMP280;9663;48.996;8.334;2024-03-17T07:43:38;100899.91;;;16.65
19061;BMP280;9663;48.996;8.334;2024-03-17T07:46:10;100898.88;;;16.73
19061;BMP280;9663;48.996;8.334;2024-03-17T07:48:41;100888.56;;;16.78
19061;BMP280;9663;48.996;8.334;2024-03-17T07:51:17;100902.19;;;16.78
19061;BMP280;9663;48.996;8.334;2024-03-17T07:53:45;100889.38;;;16.80
19061;BMP280;9663;48.996;8.334;2024-03-17T07:56:15;100896.19;;;16.81
19061;BMP280;9663;48.996;8.334;2024-03-17T07:58:43;100898.88;;;16.73
19061;BMP280;9663;48.996;8.334;2024-03-17T08:01:14;100899.88;;;16.67
19061;BMP280;9663;48.996;8.334;2024-03-17T08:03:45;100895.69;;;16.63
19061;BMP280;9663;48.996;8.334;2024-03-17T08:06:11;100897.31;;;16.67
19061;BMP280;9663;48.996;8.334;2024-03-17T08:08:37;100898.88;;;16.73
19061;BMP280;9663;48.996;8.334;2024-03-17T08:11:03;100892.72;;;16.82
19061;BMP280;9663;48.996;8.334;2024-03-17T08:13:30;100894.22;;;16.93
19061;BMP280;9663;48.996;8.334;2024-03-17T08:16:07;100898.25;;;17.05
19061;BMP280;9663;48.996;8.334;2024-03-17T08:18:36;100900.53;;;17.19
19061;BMP280;9663;48.996;8.334;2024-03-17T08:21:03;100895.22;;;17.28
19061;BMP280;9663;48.996;8.334;2024-03-17T08:23:33;100895.09;;;17.33
19061;BMP280;9663;48.996;8.334;2024-03-17T08:26:00;100891.53;;;17.41
19061;BMP280;9663;48.996;8.334;2024-03-17T08:28:27;100886.28;;;17.46
19061;BMP280;9663;48.996;8.334;2024-03-17T08:30:57;100887.78;;;17.54
19061;BMP280;9663;48.996;8.334;2024-03-17T08:33:24;100887.69;;;17.58
19061;BMP280;9663;48.996;8.334;2024-03-17T08:36:04;100884.09;;;17.65
19061;BMP280;9663;48.996;8.334;2024-03-17T08:38:32;100889.03;;;17.74
19061;BMP280;9663;48.996;8.334;2024-03-17T08:41:03;100883.72;;;17.82
19061;BMP280;9663;48.996;8.334;2024-03-17T08:43:30;100877.50;;;17.90
19061;BMP280;9663;48.996;8.334;2024-03-17T08:46:03;100868.75;;;18.00
19061;BMP280;9663;48.996;8.334;2024-03-17T08:48:31;100864.22;;;18.08
19061;BMP280;9663;48.996;8.334;2024-03-17T08:50:58;100868.47;;;18.12
19061;BMP280;9663;48.996;8.334;2024-03-17T08:53:24;100871.81;;;18.14
19061;BMP280;9663;48.996;8.334;2024-03-17T08:55:51;100870.88;;;18.16
19061;BMP280;9663;48.996;8.334;2024-03-17T08:58:17;100879.38;;;18.20
19061;BMP280;9663;48.996;8.334;2024-03-17T09:00:43;100869.72;;;18.28
19061;BMP280;9663;48.996;8.334;2024-03-17T09:03:09;100870.25;;;18.41
19061;BMP280;9663;48.996;8.334;2024-03-17T09:05:37;100869.13;;;18.51
19061;BMP280;9663;48.996;8.334;2024-03-17T09:08:03;100852.59;;;18.60
19061;BMP280;9663;48.996;8.334;2024-03-17T09:10:29;100852.50;;;18.64
19061;BMP280;9663;48.996;8.334;2024-03-17T09:12:55;100861.78;;;18.68
19061;BMP280;9663;48.996;8.334;2024-03-17T09:15:20;100861.53;;;18.77
19061;BMP280;9663;48.996;8.334;2024-03-17T09:17:46;100863.88;;;18.84
19061;BMP280;9663;48.996;8.334;2024-03-17T09:20:13;100860.22;;;18.93
19061;BMP280;9663;48.996;8.334;2024-03-17T09:22:41;100859.09;;;19.03
19061;BMP280;9663;48.996;8.334;2024-03-17T09:25:10;100860.44;;;19.16
19061;BMP280;9663;48.996;8.334;2024-03-17T09:27:37;100866.09;;;19.27
19061;BMP280;9663;48.996;8.334;2024-03-17T09:30:06;100869.22;;;19.36
19061;BMP280;9663;48.996;8.334;2024-03-17T09:32:36;100872.31;;;19.47
19061;BMP280;9663;48.996;8.334;2024-03-17T09:35:02;100862.53;;;19.58
19061;BMP280;9663;48.996;8.334;2024-03-17T09:37:29;100862.13;;;19.71
19061;BMP280;9663;48.996;8.334;2024-03-17T09:39:57;100858.31;;;19.82
19061;BMP280;9663;48.996;8.334;2024-03-17T09:42:24;100862.53;;;19.85
19061;BMP280;9663;48.996;8.334;2024-03-17T09:44:53;100863.50;;;19.81
19061;BMP280;9663;48.996;8.334;2024-03-17T09:47:21;100858.50;;;20.28
19061;BMP280;9663;48.996;8.334;2024-03-17T09:49:50;100868.28;;;19.93
19061;BMP280;9663;48.996;8.334;2024-03-17T09:52:25;100857.06;;;19.95
19061;BMP280;9663;48.996;8.334;2024-03-17T09:54:59;100850.75;;;20.04
19061;BMP280;9663;48.996;8.334;2024-03-17T09:57:25;100847.88;;;20.13
19061;BMP280;9663;48.996;8.334;2024-03-17T09:59:55;100859.50;;;20.24
19061;BMP280;9663;48.996;8.334;2024-03-17T10:02:22;100855.69;;;20.34
19061;BMP280;9663;48.996;8.334;2024-03-17T10:04:48;100856.88;;;20.50
19061;BMP280;9663;48.996;8.334;2024-03-17T10:07:14;100860.44;;;20.70
19061;BMP280;9663;48.996;8.334;2024-03-17T10:09:42;100855.66;;;20.84
19061;BMP280;9663;48.996;8.334;2024-03-17T10:12:29;100860.34;;;20.96
19061;BMP280;9663;48.996;8.334;2024-03-17T10:14:59;100862.19;;;21.15
19061;BMP280;9663;48.996;8.334;2024-03-17T10:17:32;100854.81;;;21.27
19061;BMP280;9663;48.996;8.334;2024-03-17T10:20:19;100858.00;;;21.34
19061;BMP280;9663;48.996;8.334;2024-03-17T10:23:01;100865.56;;;21.38
19061;BMP280;9663;48.996;8.334;2024-03-17T10:25:33;100868.00;;;21.42
19061;BMP280;9663;48.996;8.334;2024-03-17T10:28:01;100859.38;;;21.42
19061;BMP280;9663;48.996;8.334;2024-03-17T10:30:28;100870.78;;;21.37
19061;BMP280;9663;48.996;8.334;2024-03-17T10:32:59;100867.56;;;21.32
19061;BMP280;9663;48.996;8.334;2024-03-17T10:35:37;100858.84;;;21.34
19061;BMP280;9663;48.996;8.334;2024-03-17T10:38:12;100852.34;;;21.47
19061;BMP280;9663;48.996;8.334;2024-03-17T10:40:39;100842.28;;;21.62
19061;BMP280;9663;48.996;8.334;2024-03-17T10:43:06;100834.91;;;21.73
19061;BMP280;9663;48.996;8.334;2024-03-17T10:45:33;100831.94;;;21.84
19061;BMP280;9663;48.996;8.334;2024-03-17T10:48:07;100825.63;;;22.30
19061;BMP280;9663;48.996;8.334;2024-03-17T10:50:37;100825.66;;;22.09
19061;BMP280;9663;48.996;8.334;2024-03-17T10:53:05;100833.13;;;22.16
19061;BMP280;9663;48.996;8.334;2024-03-17T10:58:36;100821.34;;;22.29
19061;BMP280;9663;48.996;8.334;2024-03-17T11:01:11;100821.56;;;22.44
19061;BMP280;9663;48.996;8.334;2024-03-17T11:03:37;100821.91;;;22.55
19061;BMP280;9663;48.996;8.334;2024-03-17T11:06:04;100819.00;;;22.63
19061;BMP280;9663;48.996;8.334;2024-03-17T11:08:32;100816.00;;;22.72
19061;BMP280;9663;48.996;8.334;2024-03-17T11:10:59;100811.00;;;22.87
19061;BMP280;9663;48.996;8.334;2024-03-17T11:13:28;100808.28;;;23.08
19061;BMP280;9663;48.996;8.334;2024-03-17T11:15:57;100812.50;;;23.27
19061;BMP280;9663;48.996;8.334;2024-03-17T11:18:34;100807.47;;;23.43
19061;BMP280;9663;48.996;8.334;2024-03-17T11:21:19;100801.22;;;23.47
19061;BMP280;9663;48.996;8.334;2024-03-17T11:24:00;100797.78;;;23.64
19061;BMP280;9663;48.996;8.334;2024-03-17T11:26:34;100804.03;;;23.77
19061;BMP280;9663;48.996;8.334;2024-03-17T11:29:03;100795.88;;;23.85
19061;BMP280;9663;48.996;8.334;2024-03-17T11:31:45;100790.88;;;23.99
19061;BMP280;9663;48.996;8.334;2024-03-17T11:34:36;100789.00;;;24.17
19061;BMP280;9663;48.996;8.334;2024-03-17T11:37:05;100782.81;;;24.37
19061;BMP280;9663;48.996;8.334;2024-03-17T11:39:54;100784.38;;;24.41
19061;BMP280;9663;48.996;8.334;2024-03-17T11:42:26;100786.78;;;24.44
19061;BMP280;9663;48.996;8.334;2024-03-17T11:45:03;100783.78;;;24.36
19061;BMP280;9663;48.996;8.334;2024-03-17T11:47:40;100782.47;;;24.75
19061;BMP280;9663;48.996;8.334;2024-03-17T11:50:09;100780.84;;;24.42
19061;BMP280;9663;48.996;8.334;2024-03-17T11:52:37;100781.78;;;24.41
19061;BMP280;9663;48.996;8.334;2024-03-17T11:55:03;100785.19;;;24.41
19061;BMP280;9663;48.996;8.334;2024-03-17T11:57:29;100786.25;;;24.37
19061;BMP280;9663;48.996;8.334;2024-03-17T11:59:56;100782.69;;;24.23
19061;BMP280;9663;48.996;8.334;2024-03-17T12:02:26;100781.84;;;24.05
19061;BMP280;9663;48.996;8.334;2024-03-17T12:04:59;100784.16;;;23.95
19061;BMP280;9663;48.996;8.334;2024-03-17T12:07:25;100784.16;;;23.95
19061;BMP280;9663;48.996;8.334;2024-03-17T12:09:53;100783.53;;;24.06
19061;BMP280;9663;48.996;8.334;2024-03-17T12:12:22;100780.69;;;24.28
19061;BMP280;9663;48.996;8.334;2024-03-17T12:14:50;100769.56;;;24.58
19061;BMP280;9663;48.996;8.334;2024-03-17T12:17:23;100747.91;;;24.89
19061;BMP280;9663;48.996;8.334;2024-03-17T12:19:49;100746.50;;;25.30
19061;BMP280;9663;48.996;8.334;2024-03-17T12:22:18;100738.19;;;25.83
19061;BMP280;9663;48.996;8.334;2024-03-17T12:24:49;100746.88;;;26.39
19061;BMP280;9663;48.996;8.334;2024-03-17T12:27:24;100735.97;;;26.88
19061;BMP280;9663;48.996;8.334;2024-03-17T12:29:54;100739.59;;;27.38
19061;BMP280;9663;48.996;8.334;2024-03-17T12:32:23;100734.50;;;27.88
19061;BMP280;9663;48.996;8.334;2024-03-17T12:34:54;100728.16;;;28.29
19061;BMP280;9663;48.996;8.334;2024-03-17T12:37:27;100720.75;;;28.47
19061;BMP280;9663;48.996;8.334;2024-03-17T12:40:02;100727.97;;;28.44
19061;BMP280;9663;48.996;8.334;2024-03-17T12:42:30;100726.13;;;28.21
19061;BMP280;9663;48.996;8.334;2024-03-17T12:45:01;100719.19;;;27.95
19061;BMP280;9663;48.996;8.334;2024-03-17T12:47:31;100711.88;;;27.76
19061;BMP280;9663;48.996;8.334;2024-03-17T12:49:58;100721.78;;;27.58
19061;BMP280;9663;48.996;8.334;2024-03-17T12:52:30;100719.91;;;27.60
19061;BMP280;9663;48.996;8.334;2024-03-17T12:55:06;100719.75;;;27.23
19061;BMP280;9663;48.996;8.334;2024-03-17T12:58:05;100711.22;;;27.21
19061;BMP280;9663;48.996;8.334;2024-03-17T13:01:03;100708.22;;;27.27
19061;BMP280;9663;48.996;8.334;2024-03-17T13:03:34;100711.38;;;27.06
19061;BMP280;9663;48.996;8.334;2024-03-17T13:06:02;100702.84;;;27.43
19061;BMP280;9663;48.996;8.334;2024-03-17T13:08:29;100707.00;;;27.07
19061;BMP280;9663;48.996;8.334;2024-03-17T13:11:00;100703.22;;;26.98
19061;BMP280;9663;48.996;8.334;2024-03-17T13:13:29;100695.06;;;26.90
19061;BMP280;9663;48.996;8.334;2024-03-17T13:15:55;100692.19;;;26.95
19061;BMP280;9663;48.996;8.334;2024-03-17T13:18:23;100687.00;;;27.07
19061;BMP280;9663;48.996;8.334;2024-03-17T13:20:50;100696.84;;;27.16
19061;BMP280;9663;48.996;8.334;2024-03-17T13:23:20;100689.34;;;27.24
19061;BMP280;9663;48.996;8.334;2024-03-17T13:25:50;100679.25;;;27.58
19061;BMP280;9663;48.996;8.334;2024-03-17T13:28:15;100688.88;;;27.05
19061;BMP280;9663;48.996;8.334;2024-03-17T13:30:41;100682.06;;;26.90
19061;BMP280;9663;48.996;8.334;2024-03-17T13:33:08;100673.50;;;26.74
19061;BMP280;9663;48.996;8.334;2024-03-17T13:35:37;100669.91;;;26.63
19061;BMP280;9663;48.996;8.334;2024-03-17T13:38:06;100669.03;;;26.50
19061;BMP280;9663;48.996;8.334;2024-03-17T13:40:39;100672.28;;;26.40
19061;BMP280;9663;48.996;8.334;2024-03-17T13:43:06;100666.44;;;26.22
19061;BMP280;9663;48.996;8.334;2024-03-17T13:45:40;100670.31;;;26.16
19061;BMP280;9663;48.996;8.334;2024-03-17T13:48:07;100664.03;;;26.06
19061;BMP280;9663;48.996;8.334;2024-03-17T13:50:37;100658.28;;;25.87
19061;BMP280;9663;48.996;8.334;2024-03-17T13:53:06;100649.63;;;25.73
19061;BMP280;9663;48.996;8.334;2024-03-17T13:55:32;100662.06;;;25.68
19061;BMP280;9663;48.996;8.334;2024-03-17T13:57:58;100654.25;;;25.68
19061;BMP280;9663;48.996;8.334;2024-03-17T14:00:29;100657.81;;;25.67
19061;BMP280;9663;48.996;8.334;2024-03-17T14:02:55;100658.47;;;25.55
19061;BMP280;9663;48.996;8.334;2024-03-17T14:05:32;100658.53;;;25.39
19061;BMP280;9663;48.996;8.334;2024-03-17T14:08:01;100654.00;;;25.14
19061;BMP280;9663;48.996;8.334;2024-03-17T14:10:30;100653.59;;;24.90
19061;BMP280;9663;48.996;8.334;2024-03-17T14:12:56;100654.88;;;24.84
19061;BMP280;9663;48.996;8.334;2024-03-17T14:15:22;100660.66;;;24.89
19061;BMP280;9663;48.996;8.334;2024-03-17T14:17:48;100655.44;;;25.04
19061;BMP280;9663;48.996;8.334;2024-03-17T14:20:15;100644.59;;;25.27
19061;BMP280;9663;48.996;8.334;2024-03-17T14:22:45;100637.59;;;25.42